sensor_id;sensor_type;location;lat;lon;timestamp;P1;durP1;ratioP1;P2;durP2;ratioP2
52530;SDS011;38441;52.894;6.040;2022-09-21T00:00:22;5.35;;;2.00;;
52530;SDS011;38441;52.894;6.040;2022-09-21T00:02:49;5.63;;;2.20;;
52530;SDS011;38441;52.894;6.040;2022-09-21T00:05:15;5.07;;;2.05;;
52530;SDS011;38441;52.894;6.040;2022-09-21T00:07:41;4.18;;;2.42;;
52530;SDS011;38441;52.894;6.040;2022-09-21T00:10:07;3.47;;;2.00;;
52530;SDS011;38441;52.894;6.040;2022-09-21T00:12:34;4.70;;;2.30;;
52530;SDS011;38441;52.894;6.040;2022-09-21T00:15:03;2.70;;;1.83;;
52530;SDS011;38441;52.894;6.040;2022-09-21T00:17:32;4.75;;;2.28;;
52530;SDS011;38441;52.894;6.040;2022-09-21T00:19:58;5.90;;;2.50;;
52530;SDS011;38441;52.894;6.040;2022-09-21T00:22:29;4.38;;;2.00;;
52530;SDS011;38441;52.894;6.040;2022-09-21T00:24:55;4.60;;;2.28;;
52530;SDS011;38441;52.894;6.040;2022-09-21T00:27:21;7.53;;;2.28;;
52530;SDS011;38441;52.894;6.040;2022-09-21T00:29:54;6.05;;;2.30;;
52530;SDS011;38441;52.894;6.040;2022-09-21T00:32:20;3.83;;;2.22;;
52530;SDS011;38441;52.894;6.040;2022-09-21T00:34:46;5.05;;;2.80;;
52530;SDS011;38441;52.894;6.040;2022-09-21T00:37:12;6.60;;;2.33;;
52530;SDS011;38441;52.894;6.040;2022-09-21T00:39:38;4.65;;;2.30;;
52530;SDS011;38441;52.894;6.040;2022-09-21T00:42:09;4.07;;;2.40;;
52530;SDS011;38441;52.894;6.040;2022-09-21T00:44:38;3.97;;;2.08;;
52530;SDS011;38441;52.894;6.040;2022-09-21T00:47:12;3.72;;;1.70;;
52530;SDS011;38441;52.894;6.040;2022-09-21T00:49:43;3.70;;;1.40;;
52530;SDS011;38441;52.894;6.040;2022-09-21T00:52:13;3.33;;;1.57;;
52530;SDS011;38441;52.894;6.040;2022-09-21T00:54:41;3.92;;;1.55;;
52530;SDS011;38441;52.894;6.040;2022-09-21T00:57:16;4.38;;;1.90;;
52530;SDS011;38441;52.894;6.040;2022-09-21T00:59:45;3.58;;;2.10;;
52530;SDS011;38441;52.894;6.040;2022-09-21T01:02:12;5.07;;;2.03;;
52530;SDS011;38441;52.894;6.040;2022-09-21T01:04:39;4.20;;;1.92;;
52530;SDS011;38441;52.894;6.040;2022-09-21T01:07:07;5.20;;;2.08;;
52530;SDS011;38441;52.894;6.040;2022-09-21T01:09:36;4.07;;;1.95;;
52530;SDS011;38441;52.894;6.040;2022-09-21T01:17:36;4.25;;;1.95;;
52530;SDS011;38441;52.894;6.040;2022-09-21T01:25:40;5.32;;;2.30;;
52530;SDS011;38441;52.894;6.040;2022-09-21T01:28:48;3.33;;;1.65;;
52530;SDS011;38441;52.894;6.040;2022-09-21T01:31:40;3.75;;;1.98;;
52530;SDS011;38441;52.894;6.040;2022-09-21T01:36:56;2.97;;;1.40;;
52530;SDS011;38441;52.894;6.040;2022-09-21T01:39:25;2.78;;;1.33;;
52530;SDS011;38441;52.894;6.040;2022-09-21T01:41:53;2.47;;;1.20;;
52530;SDS011;38441;52.894;6.040;2022-09-21T01:44:22;1.85;;;0.77;;
52530;SDS011;38441;52.894;6.040;2022-09-21T01:46:51;3.22;;;1.30;;
52530;SDS011;38441;52.894;6.040;2022-09-21T01:49:23;4.38;;;1.25;;
52530;SDS011;38441;52.894;6.040;2022-09-21T01:51:55;3.38;;;1.45;;
52530;SDS011;38441;52.894;6.040;2022-09-21T01:54:35;2.92;;;1.55;;
52530;SDS011;38441;52.894;6.040;2022-09-21T01:57:11;2.92;;;1.60;;
52530;SDS011;38441;52.894;6.040;2022-09-21T01:59:53;3.63;;;1.88;;
52530;SDS011;38441;52.894;6.040;2022-09-21T02:02:22;3.05;;;1.25;;
52530;SDS011;38441;52.894;6.040;2022-09-21T02:04:53;4.22;;;1.50;;
52530;SDS011;38441;52.894;6.040;2022-09-21T02:07:19;2.33;;;1.08;;
52530;SDS011;38441;52.894;6.040;2022-09-21T02:09:45;1.98;;;1.00;;
52530;SDS011;38441;52.894;6.040;2022-09-21T02:12:11;3.22;;;1.17;;
52530;SDS011;38441;52.894;6.040;2022-09-21T02:14:38;3.10;;;1.45;;
52530;SDS011;38441;52.894;6.040;2022-09-21T02:17:25;2.17;;;1.05;;
52530;SDS011;38441;52.894;6.040;2022-09-21T02:20:15;3.35;;;1.20;;
52530;SDS011;38441;52.894;6.040;2022-09-21T02:28:10;2.13;;;1.08;;
52530;SDS011;38441;52.894;6.040;2022-09-21T02:31:01;2.88;;;1.13;;
52530;SDS011;38441;52.894;6.040;2022-09-21T02:33:40;4.67;;;1.50;;
52530;SDS011;38441;52.894;6.040;2022-09-21T02:36:18;2.40;;;1.30;;
52530;SDS011;38441;52.894;6.040;2022-09-21T02:38:54;3.53;;;1.42;;
52530;SDS011;38441;52.894;6.040;2022-09-21T02:44:27;1.92;;;1.10;;
52530;SDS011;38441;52.894;6.040;2022-09-21T02:49:36;3.58;;;1.48;;
52530;SDS011;38441;52.894;6.040;2022-09-21T02:52:08;3.78;;;1.15;;
52530;SDS011;38441;52.894;6.040;2022-09-21T02:54:37;2.45;;;1.17;;
52530;SDS011;38441;52.894;6.040;2022-09-21T02:57:06;3.60;;;1.33;;
52530;SDS011;38441;52.894;6.040;2022-09-21T02:59:32;2.05;;;1.10;;
52530;SDS011;38441;52.894;6.040;2022-09-21T03:01:59;2.92;;;1.40;;
52530;SDS011;38441;52.894;6.040;2022-09-21T03:04:25;4.60;;;1.88;;
52530;SDS011;38441;52.894;6.040;2022-09-21T03:06:52;3.42;;;1.45;;
52530;SDS011;38441;52.894;6.040;2022-09-21T03:09:18;3.67;;;1.35;;
52530;SDS011;38441;52.894;6.040;2022-09-21T03:11:48;3.15;;;0.70;;
52530;SDS011;38441;52.894;6.040;2022-09-21T03:14:14;2.35;;;0.90;;
52530;SDS011;38441;52.894;6.040;2022-09-21T03:16:41;3.25;;;1.10;;
52530;SDS011;38441;52.894;6.040;2022-09-21T03:19:07;2.47;;;1.10;;
52530;SDS011;38441;52.894;6.040;2022-09-21T03:21:33;4.50;;;1.25;;
52530;SDS011;38441;52.894;6.040;2022-09-21T03:23:59;4.57;;;1.40;;
52530;SDS011;38441;52.894;6.040;2022-09-21T03:26:25;3.83;;;2.00;;
52530;SDS011;38441;52.894;6.040;2022-09-21T03:28:51;3.28;;;1.80;;
52530;SDS011;38441;52.894;6.040;2022-09-21T03:31:18;3.50;;;1.30;;
52530;SDS011;38441;52.894;6.040;2022-09-21T03:33:45;2.80;;;1.60;;
52530;SDS011;38441;52.894;6.040;2022-09-21T03:36:11;2.38;;;1.50;;
52530;SDS011;38441;52.894;6.040;2022-09-21T03:38:37;3.97;;;1.90;;
52530;SDS011;38441;52.894;6.040;2022-09-21T03:41:04;2.38;;;1.20;;
52530;SDS011;38441;52.894;6.040;2022-09-21T03:43:30;2.85;;;1.50;;
52530;SDS011;38441;52.894;6.040;2022-09-21T03:45:56;3.65;;;1.60;;
52530;SDS011;38441;52.894;6.040;2022-09-21T03:48:22;4.05;;;1.83;;
52530;SDS011;38441;52.894;6.040;2022-09-21T03:50:48;2.78;;;1.55;;
52530;SDS011;38441;52.894;6.040;2022-09-21T03:53:14;2.72;;;1.38;;
52530;SDS011;38441;52.894;6.040;2022-09-21T03:55:40;2.58;;;1.67;;
52530;SDS011;38441;52.894;6.040;2022-09-21T03:58:06;2.60;;;1.55;;
52530;SDS011;38441;52.894;6.040;2022-09-21T04:00:33;2.42;;;1.40;;
52530;SDS011;38441;52.894;6.040;2022-09-21T04:02:59;3.45;;;1.98;;
52530;SDS011;38441;52.894;6.040;2022-09-21T04:05:26;3.85;;;1.85;;
52530;SDS011;38441;52.894;6.040;2022-09-21T04:07:52;5.40;;;1.88;;
52530;SDS011;38441;52.894;6.040;2022-09-21T04:10:20;4.22;;;1.95;;
52530;SDS011;38441;52.894;6.040;2022-09-21T04:12:51;3.65;;;1.80;;
52530;SDS011;38441;52.894;6.040;2022-09-21T04:15:17;3.60;;;1.58;;
52530;SDS011;38441;52.894;6.040;2022-09-21T04:17:44;4.70;;;2.00;;
52530;SDS011;38441;52.894;6.040;2022-09-21T04:20:10;5.47;;;1.70;;
52530;SDS011;38441;52.894;6.040;2022-09-21T04:22:36;4.32;;;1.83;;
52530;SDS011;38441;52.894;6.040;2022-09-21T04:25:03;2.80;;;1.50;;
52530;SDS011;38441;52.894;6.040;2022-09-21T04:27:30;2.63;;;1.20;;
52530;SDS011;38441;52.894;6.040;2022-09-21T04:29:57;1.77;;;0.73;;
52530;SDS011;38441;52.894;6.040;2022-09-21T04:32:23;1.42;;;0.82;;
52530;SDS011;38441;52.894;6.040;2022-09-21T04:34:49;1.52;;;0.90;;
52530;SDS011;38441;52.894;6.040;2022-09-21T04:37:15;2.45;;;1.20;;
52530;SDS011;38441;52.894;6.040;2022-09-21T04:39:41;2.28;;;1.17;;
52530;SDS011;38441;52.894;6.040;2022-09-21T04:42:07;2.60;;;1.25;;
52530;SDS011;38441;52.894;6.040;2022-09-21T04:44:33;2.28;;;1.33;;
52530;SDS011;38441;52.894;6.040;2022-09-21T04:46:59;3.42;;;1.55;;
52530;SDS011;38441;52.894;6.040;2022-09-21T04:49:25;3.17;;;1.40;;
52530;SDS011;38441;52.894;6.040;2022-09-21T04:51:51;2.20;;;1.40;;
52530;SDS011;38441;52.894;6.040;2022-09-21T04:54:18;2.28;;;1.15;;
52530;SDS011;38441;52.894;6.040;2022-09-21T04:56:44;3.22;;;1.35;;
52530;SDS011;38441;52.894;6.040;2022-09-21T04:59:10;3.22;;;1.48;;
52530;SDS011;38441;52.894;6.040;2022-09-21T05:01:36;3.30;;;1.40;;
52530;SDS011;38441;52.894;6.040;2022-09-21T05:04:02;3.28;;;1.23;;
52530;SDS011;38441;52.894;6.040;2022-09-21T05:06:28;4.38;;;1.50;;
52530;SDS011;38441;52.894;6.040;2022-09-21T05:08:54;2.00;;;1.20;;
52530;SDS011;38441;52.894;6.040;2022-09-21T05:11:39;4.30;;;1.58;;
52530;SDS011;38441;52.894;6.040;2022-09-21T05:14:05;2.65;;;1.20;;
52530;SDS011;38441;52.894;6.040;2022-09-21T05:16:31;2.92;;;1.27;;
52530;SDS011;38441;52.894;6.040;2022-09-21T05:18:57;6.60;;;1.30;;
52530;SDS011;38441;52.894;6.040;2022-09-21T05:21:23;2.38;;;1.30;;
52530;SDS011;38441;52.894;6.040;2022-09-21T05:23:49;2.70;;;1.13;;
52530;SDS011;38441;52.894;6.040;2022-09-21T05:26:16;2.15;;;1.10;;
52530;SDS011;38441;52.894;6.040;2022-09-21T05:28:42;2.13;;;1.20;;
52530;SDS011;38441;52.894;6.040;2022-09-21T05:31:18;1.48;;;0.93;;
52530;SDS011;38441;52.894;6.040;2022-09-21T05:33:51;1.92;;;0.95;;
52530;SDS011;38441;52.894;6.040;2022-09-21T05:36:50;3.33;;;1.20;;
52530;SDS011;38441;52.894;6.040;2022-09-21T05:39:23;2.20;;;1.30;;
52530;SDS011;38441;52.894;6.040;2022-09-21T05:41:49;2.13;;;1.13;;
52530;SDS011;38441;52.894;6.040;2022-09-21T05:44:15;2.60;;;1.20;;
52530;SDS011;38441;52.894;6.040;2022-09-21T05:46:42;1.58;;;0.98;;
52530;SDS011;38441;52.894;6.040;2022-09-21T05:49:21;2.13;;;1.13;;
52530;SDS011;38441;52.894;6.040;2022-09-21T05:52:12;4.07;;;1.10;;
52530;SDS011;38441;52.894;6.040;2022-09-21T05:54:57;2.30;;;1.30;;
52530;SDS011;38441;52.894;6.040;2022-09-21T06:00:14;3.58;;;1.65;;
52530;SDS011;38441;52.894;6.040;2022-09-21T06:05:44;2.67;;;1.35;;
52530;SDS011;38441;52.894;6.040;2022-09-21T06:08:10;2.10;;;1.15;;
52530;SDS011;38441;52.894;6.040;2022-09-21T06:10:36;3.10;;;1.30;;
52530;SDS011;38441;52.894;6.040;2022-09-21T06:13:02;3.08;;;1.50;;
52530;SDS011;38441;52.894;6.040;2022-09-21T06:15:28;2.88;;;1.40;;
52530;SDS011;38441;52.894;6.040;2022-09-21T06:17:54;2.60;;;1.50;;
52530;SDS011;38441;52.894;6.040;2022-09-21T06:20:20;2.70;;;1.70;;
52530;SDS011;38441;52.894;6.040;2022-09-21T06:22:47;3.25;;;2.13;;
52530;SDS011;38441;52.894;6.040;2022-09-21T06:25:13;4.07;;;2.20;;
52530;SDS011;38441;52.894;6.040;2022-09-21T06:27:39;5.35;;;2.88;;
52530;SDS011;38441;52.894;6.040;2022-09-21T06:30:05;5.32;;;3.13;;
52530;SDS011;38441;52.894;6.040;2022-09-21T06:32:31;6.10;;;2.90;;
52530;SDS011;38441;52.894;6.040;2022-09-21T06:34:57;7.07;;;3.22;;
52530;SDS011;38441;52.894;6.040;2022-09-21T06:37:23;7.97;;;3.08;;
52530;SDS011;38441;52.894;6.040;2022-09-21T06:42:36;7.05;;;2.88;;
52530;SDS011;38441;52.894;6.040;2022-09-21T06:45:02;6.22;;;2.95;;
52530;SDS011;38441;52.894;6.040;2022-09-21T06:47:28;5.15;;;2.65;;
52530;SDS011;38441;52.894;6.040;2022-09-21T06:49:54;7.93;;;3.10;;
52530;SDS011;38441;52.894;6.040;2022-09-21T06:52:20;10.70;;;3.45;;
52530;SDS011;38441;52.894;6.040;2022-09-21T06:54:46;8.55;;;3.42;;
52530;SDS011;38441;52.894;6.040;2022-09-21T06:57:12;11.52;;;3.25;;
52530;SDS011;38441;52.894;6.040;2022-09-21T06:59:38;7.60;;;2.55;;
52530;SDS011;38441;52.894;6.040;2022-09-21T07:02:04;12.52;;;3.05;;
52530;SDS011;38441;52.894;6.040;2022-09-21T07:04:31;13.30;;;4.05;;
52530;SDS011;38441;52.894;6.040;2022-09-21T07:06:58;10.38;;;2.92;;
52530;SDS011;38441;52.894;6.040;2022-09-21T07:09:24;8.23;;;3.25;;
52530;SDS011;38441;52.894;6.040;2022-09-21T07:11:50;8.27;;;3.20;;
52530;SDS011;38441;52.894;6.040;2022-09-21T07:14:16;7.57;;;2.97;;
52530;SDS011;38441;52.894;6.040;2022-09-21T07:16:42;8.15;;;3.33;;
52530;SDS011;38441;52.894;6.040;2022-09-21T07:19:08;7.43;;;3.05;;
52530;SDS011;38441;52.894;6.040;2022-09-21T07:21:34;6.05;;;2.90;;
52530;SDS011;38441;52.894;6.040;2022-09-21T07:24:00;7.30;;;2.72;;
52530;SDS011;38441;52.894;6.040;2022-09-21T07:26:26;8.15;;;2.92;;
52530;SDS011;38441;52.894;6.040;2022-09-21T07:28:52;8.52;;;3.08;;
52530;SDS011;38441;52.894;6.040;2022-09-21T07:31:18;7.10;;;2.92;;
52530;SDS011;38441;52.894;6.040;2022-09-21T07:33:44;5.65;;;2.85;;
52530;SDS011;38441;52.894;6.040;2022-09-21T07:36:11;11.30;;;6.13;;
52530;SDS011;38441;52.894;6.040;2022-09-21T07:41:09;8.48;;;4.32;;
52530;SDS011;38441;52.894;6.040;2022-09-21T07:43:35;7.70;;;3.97;;
52530;SDS011;38441;52.894;6.040;2022-09-21T07:46:05;8.27;;;3.63;;
52530;SDS011;38441;52.894;6.040;2022-09-21T07:48:32;8.07;;;3.80;;
52530;SDS011;38441;52.894;6.040;2022-09-21T07:51:01;8.20;;;3.70;;
52530;SDS011;38441;52.894;6.040;2022-09-21T07:53:30;10.07;;;3.90;;
52530;SDS011;38441;52.894;6.040;2022-09-21T07:56:00;4.68;;;3.05;;
52530;SDS011;38441;52.894;6.040;2022-09-21T07:58:26;6.40;;;2.92;;
52530;SDS011;38441;52.894;6.040;2022-09-21T08:01:12;4.47;;;2.30;;
52530;SDS011;38441;52.894;6.040;2022-09-21T08:03:37;5.30;;;2.00;;
52530;SDS011;38441;52.894;6.040;2022-09-21T08:06:03;4.53;;;1.55;;
52530;SDS011;38441;52.894;6.040;2022-09-21T08:08:31;5.00;;;1.95;;
52530;SDS011;38441;52.894;6.040;2022-09-21T08:11:03;3.78;;;1.73;;
52530;SDS011;38441;52.894;6.040;2022-09-21T08:13:30;6.30;;;1.85;;
52530;SDS011;38441;52.894;6.040;2022-09-21T08:15:57;5.85;;;1.95;;
52530;SDS011;38441;52.894;6.040;2022-09-21T08:18:24;5.93;;;1.60;;
52530;SDS011;38441;52.894;6.040;2022-09-21T08:20:58;3.67;;;1.60;;
52530;SDS011;38441;52.894;6.040;2022-09-21T08:23:24;6.55;;;1.73;;
52530;SDS011;38441;52.894;6.040;2022-09-21T08:25:56;7.95;;;2.05;;
52530;SDS011;38441;52.894;6.040;2022-09-21T08:28:23;3.42;;;1.60;;
52530;SDS011;38441;52.894;6.040;2022-09-21T08:30:49;7.03;;;2.03;;
52530;SDS011;38441;52.894;6.040;2022-09-21T08:33:15;7.43;;;2.40;;
52530;SDS011;38441;52.894;6.040;2022-09-21T08:35:41;6.68;;;2.22;;
52530;SDS011;38441;52.894;6.040;2022-09-21T08:38:07;6.53;;;2.20;;
52530;SDS011;38441;52.894;6.040;2022-09-21T08:40:34;5.18;;;1.95;;
52530;SDS011;38441;52.894;6.040;2022-09-21T08:43:06;4.75;;;1.52;;
52530;SDS011;38441;52.894;6.040;2022-09-21T08:45:38;6.68;;;1.67;;
52530;SDS011;38441;52.894;6.040;2022-09-21T08:48:13;8.25;;;1.60;;
52530;SDS011;38441;52.894;6.040;2022-09-21T08:50:49;3.10;;;1.55;;
52530;SDS011;38441;52.894;6.040;2022-09-21T08:55:49;7.15;;;1.35;;
52530;SDS011;38441;52.894;6.040;2022-09-21T08:58:27;5.30;;;1.45;;
52530;SDS011;38441;52.894;6.040;2022-09-21T09:01:18;15.07;;;3.70;;
52530;SDS011;38441;52.894;6.040;2022-09-21T09:04:09;5.70;;;1.42;;
52530;SDS011;38441;52.894;6.040;2022-09-21T09:12:46;6.35;;;1.25;;
52530;SDS011;38441;52.894;6.040;2022-09-21T09:21:02;4.63;;;1.02;;
52530;SDS011;38441;52.894;6.040;2022-09-21T09:23:53;9.13;;;0.90;;
52530;SDS011;38441;52.894;6.040;2022-09-21T09:26:52;4.25;;;0.75;;
52530;SDS011;38441;52.894;6.040;2022-09-21T09:29:50;4.78;;;0.82;;
52530;SDS011;38441;52.894;6.040;2022-09-21T09:32:24;4.47;;;1.00;;
52530;SDS011;38441;52.894;6.040;2022-09-21T09:35:06;4.35;;;0.73;;
52530;SDS011;38441;52.894;6.040;2022-09-21T09:40:53;5.35;;;0.70;;
52530;SDS011;38441;52.894;6.040;2022-09-21T09:46:29;4.05;;;0.70;;
52530;SDS011;38441;52.894;6.040;2022-09-21T09:51:48;6.88;;;1.48;;
52530;SDS011;38441;52.894;6.040;2022-09-21T09:54:15;3.65;;;0.60;;
52530;SDS011;38441;52.894;6.040;2022-09-21T09:56:45;3.08;;;0.40;;
52530;SDS011;38441;52.894;6.040;2022-09-21T09:59:21;3.15;;;0.47;;
52530;SDS011;38441;52.894;6.040;2022-09-21T10:02:04;7.88;;;0.90;;
52530;SDS011;38441;52.894;6.040;2022-09-21T10:04:32;6.55;;;0.63;;
52530;SDS011;38441;52.894;6.040;2022-09-21T10:06:59;5.45;;;0.88;;
52530;SDS011;38441;52.894;6.040;2022-09-21T10:09:26;4.55;;;0.52;;
52530;SDS011;38441;52.894;6.040;2022-09-21T10:14:47;6.43;;;0.63;;
52530;SDS011;38441;52.894;6.040;2022-09-21T10:17:17;4.05;;;0.60;;
52530;SDS011;38441;52.894;6.040;2022-09-21T10:19:44;3.00;;;0.52;;
52530;SDS011;38441;52.894;6.040;2022-09-21T10:22:14;5.00;;;0.73;;
52530;SDS011;38441;52.894;6.040;2022-09-21T10:24:45;5.28;;;0.45;;
52530;SDS011;38441;52.894;6.040;2022-09-21T10:27:15;4.18;;;0.50;;
52530;SDS011;38441;52.894;6.040;2022-09-21T10:29:45;3.78;;;0.65;;
52530;SDS011;38441;52.894;6.040;2022-09-21T10:34:38;3.50;;;0.60;;
52530;SDS011;38441;52.894;6.040;2022-09-21T10:39:52;5.45;;;0.60;;
52530;SDS011;38441;52.894;6.040;2022-09-21T10:42:17;4.90;;;0.50;;
52530;SDS011;38441;52.894;6.040;2022-09-21T10:44:45;4.55;;;0.57;;
52530;SDS011;38441;52.894;6.040;2022-09-21T10:47:32;3.92;;;0.35;;
52530;SDS011;38441;52.894;6.040;2022-09-21T10:50:19;4.97;;;0.80;;
52530;SDS011;38441;52.894;6.040;2022-09-21T10:52:47;3.42;;;0.50;;
52530;SDS011;38441;52.894;6.040;2022-09-21T10:55:18;2.35;;;0.60;;
52530;SDS011;38441;52.894;6.040;2022-09-21T10:57:46;4.63;;;0.63;;
52530;SDS011;38441;52.894;6.040;2022-09-21T11:02:45;3.65;;;0.57;;
52530;SDS011;38441;52.894;6.040;2022-09-21T11:05:16;4.65;;;0.60;;
52530;SDS011;38441;52.894;6.040;2022-09-21T11:08:02;4.47;;;0.40;;
52530;SDS011;38441;52.894;6.040;2022-09-21T11:10:42;1.63;;;0.40;;
52530;SDS011;38441;52.894;6.040;2022-09-21T11:16:19;5.78;;;0.40;;
52530;SDS011;38441;52.894;6.040;2022-09-21T11:19:00;4.70;;;0.40;;
52530;SDS011;38441;52.894;6.040;2022-09-21T11:21:46;3.70;;;0.80;;
52530;SDS011;38441;52.894;6.040;2022-09-21T11:29:43;4.80;;;0.50;;
52530;SDS011;38441;52.894;6.040;2022-09-21T11:32:32;3.55;;;0.40;;
52530;SDS011;38441;52.894;6.040;2022-09-21T11:43:38;3.85;;;0.50;;
52530;SDS011;38441;52.894;6.040;2022-09-21T11:46:30;3.03;;;0.40;;
52530;SDS011;38441;52.894;6.040;2022-09-21T11:52:06;2.97;;;0.50;;
52530;SDS011;38441;52.894;6.040;2022-09-21T11:55:09;3.40;;;0.40;;
52530;SDS011;38441;52.894;6.040;2022-09-21T11:58:05;2.40;;;0.40;;
52530;SDS011;38441;52.894;6.040;2022-09-21T12:06:42;4.63;;;0.68;;
52530;SDS011;38441;52.894;6.040;2022-09-21T12:15:20;4.57;;;0.45;;
52530;SDS011;38441;52.894;6.040;2022-09-21T12:18:19;7.20;;;0.75;;
52530;SDS011;38441;52.894;6.040;2022-09-21T12:23:42;5.80;;;0.70;;
52530;SDS011;38441;52.894;6.040;2022-09-21T12:26:13;4.80;;;0.53;;
52530;SDS011;38441;52.894;6.040;2022-09-21T12:28:48;5.60;;;1.27;;
52530;SDS011;38441;52.894;6.040;2022-09-21T12:31:21;2.42;;;0.30;;
52530;SDS011;38441;52.894;6.040;2022-09-21T12:33:50;3.88;;;0.77;;
52530;SDS011;38441;52.894;6.040;2022-09-21T12:36:22;3.72;;;1.23;;
52530;SDS011;38441;52.894;6.040;2022-09-21T12:38:54;4.15;;;1.10;;
52530;SDS011;38441;52.894;6.040;2022-09-21T12:41:41;6.80;;;1.20;;
52530;SDS011;38441;52.894;6.040;2022-09-21T12:44:29;6.22;;;1.55;;
52530;SDS011;38441;52.894;6.040;2022-09-21T12:47:15;6.63;;;1.67;;
52530;SDS011;38441;52.894;6.040;2022-09-21T12:50:05;8.05;;;1.40;;
52530;SDS011;38441;52.894;6.040;2022-09-21T12:53:02;4.80;;;1.20;;
52530;SDS011;38441;52.894;6.040;2022-09-21T12:55:31;6.13;;;1.63;;
52530;SDS011;38441;52.894;6.040;2022-09-21T13:03:48;7.45;;;2.08;;
52530;SDS011;38441;52.894;6.040;2022-09-21T13:09:27;6.63;;;1.42;;
52530;SDS011;38441;52.894;6.040;2022-09-21T13:11:54;4.90;;;1.00;;
52530;SDS011;38441;52.894;6.040;2022-09-21T13:14:24;6.50;;;1.17;;
52530;SDS011;38441;52.894;6.040;2022-09-21T13:16:57;6.80;;;1.02;;
52530;SDS011;38441;52.894;6.040;2022-09-21T13:19:29;6.35;;;1.00;;
52530;SDS011;38441;52.894;6.040;2022-09-21T14:24:38;3.17;;;0.70;;
52530;SDS011;38441;52.894;6.040;2022-09-21T14:27:19;4.78;;;0.70;;
52530;SDS011;38441;52.894;6.040;2022-09-21T14:29:52;5.60;;;0.60;;
52530;SDS011;38441;52.894;6.040;2022-09-21T14:32:24;3.20;;;0.60;;
52530;SDS011;38441;52.894;6.040;2022-09-21T14:34:58;4.28;;;0.50;;
52530;SDS011;38441;52.894;6.040;2022-09-21T14:40:20;4.07;;;0.63;;
52530;SDS011;38441;52.894;6.040;2022-09-21T14:42:52;4.60;;;0.50;;
52530;SDS011;38441;52.894;6.040;2022-09-21T14:45:22;2.97;;;0.43;;
52530;SDS011;38441;52.894;6.040;2022-09-21T14:48:12;2.85;;;0.75;;
52530;SDS011;38441;52.894;6.040;2022-09-21T14:50:46;24.20;;;2.00;;
52530;SDS011;38441;52.894;6.040;2022-09-21T14:53:52;17.42;;;1.42;;
52530;SDS011;38441;52.894;6.040;2022-09-21T17:27:21;3.22;;;0.60;;
52530;SDS011;38441;52.894;6.040;2022-09-21T17:29:56;4.57;;;0.57;;
52530;SDS011;38441;52.894;6.040;2022-09-21T17:32:27;3.97;;;0.50;;
52530;SDS011;38441;52.894;6.040;2022-09-21T17:34:57;2.75;;;0.65;;
52530;SDS011;38441;52.894;6.040;2022-09-21T17:40:30;2.33;;;0.57;;
52530;SDS011;38441;52.894;6.040;2022-09-21T17:43:05;7.15;;;0.90;;
52530;SDS011;38441;52.894;6.040;2022-09-21T17:45:55;4.10;;;0.70;;
52530;SDS011;38441;52.894;6.040;2022-09-21T17:48:37;4.70;;;0.80;;
52530;SDS011;38441;52.894;6.040;2022-09-21T17:51:04;4.65;;;0.55;;
52530;SDS011;38441;52.894;6.040;2022-09-21T17:53:34;3.40;;;0.57;;
52530;SDS011;38441;52.894;6.040;2022-09-21T17:59:04;4.90;;;0.70;;
52530;SDS011;38441;52.894;6.040;2022-09-21T18:01:35;3.97;;;1.02;;
52530;SDS011;38441;52.894;6.040;2022-09-21T18:04:03;4.55;;;0.60;;
52530;SDS011;38441;52.894;6.040;2022-09-21T18:06:31;5.68;;;0.68;;
52530;SDS011;38441;52.894;6.040;2022-09-21T18:08:58;5.60;;;0.65;;
52530;SDS011;38441;52.894;6.040;2022-09-21T18:11:45;2.75;;;0.70;;
52530;SDS011;38441;52.894;6.040;2022-09-21T18:25:50;4.37;;;1.03;;
52530;SDS011;38441;52.894;6.040;2022-09-21T18:34:01;3.95;;;0.80;;
52530;SDS011;38441;52.894;6.040;2022-09-21T18:39:31;4.03;;;0.77;;
52530;SDS011;38441;52.894;6.040;2022-09-21T18:45:36;5.30;;;1.13;;
52530;SDS011;38441;52.894;6.040;2022-09-21T18:53:43;5.05;;;0.90;;
52530;SDS011;38441;52.894;6.040;2022-09-21T18:56:20;5.00;;;1.10;;
52530;SDS011;38441;52.894;6.040;2022-09-21T18:58:47;3.20;;;0.98;;
52530;SDS011;38441;52.894;6.040;2022-09-21T19:01:17;2.47;;;0.70;;
52530;SDS011;38441;52.894;6.040;2022-09-21T19:03:46;5.18;;;0.70;;
52530;SDS011;38441;52.894;6.040;2022-09-21T19:09:02;4.28;;;0.90;;
52530;SDS011;38441;52.894;6.040;2022-09-21T19:17:11;3.08;;;1.13;;
52530;SDS011;38441;52.894;6.040;2022-09-21T19:23:27;5.68;;;1.00;;
52530;SDS011;38441;52.894;6.040;2022-09-21T19:26:00;3.72;;;1.35;;
52530;SDS011;38441;52.894;6.040;2022-09-21T19:28:39;4.07;;;1.40;;
52530;SDS011;38441;52.894;6.040;2022-09-21T19:33:41;4.55;;;1.30;;
52530;SDS011;38441;52.894;6.040;2022-09-21T19:36:09;5.15;;;1.60;;
52530;SDS011;38441;52.894;6.040;2022-09-21T19:38:35;7.97;;;1.70;;
52530;SDS011;38441;52.894;6.040;2022-09-21T19:41:08;4.70;;;1.63;;
52530;SDS011;38441;52.894;6.040;2022-09-21T19:43:43;5.57;;;2.00;;
52530;SDS011;38441;52.894;6.040;2022-09-21T19:48:53;5.20;;;1.70;;
52530;SDS011;38441;52.894;6.040;2022-09-21T19:51:30;4.45;;;2.03;;
52530;SDS011;38441;52.894;6.040;2022-09-21T19:54:14;3.97;;;1.80;;
52530;SDS011;38441;52.894;6.040;2022-09-21T19:57:03;5.30;;;2.08;;
52530;SDS011;38441;52.894;6.040;2022-09-21T19:59:58;4.95;;;2.60;;
52530;SDS011;38441;52.894;6.040;2022-09-21T20:13:01;6.00;;;2.92;;
52530;SDS011;38441;52.894;6.040;2022-09-21T20:15:39;7.80;;;3.35;;
52530;SDS011;38441;52.894;6.040;2022-09-21T20:18:25;7.82;;;3.45;;
52530;SDS011;38441;52.894;6.040;2022-09-21T20:21:11;6.65;;;3.53;;
52530;SDS011;38441;52.894;6.040;2022-09-21T20:23:38;7.32;;;3.88;;
52530;SDS011;38441;52.894;6.040;2022-09-21T20:26:07;8.07;;;3.40;;
52530;SDS011;38441;52.894;6.040;2022-09-21T20:28:51;5.35;;;2.83;;
52530;SDS011;38441;52.894;6.040;2022-09-21T20:31:21;5.68;;;2.88;;
52530;SDS011;38441;52.894;6.040;2022-09-21T20:36:15;5.28;;;2.53;;
52530;SDS011;38441;52.894;6.040;2022-09-21T20:38:41;4.95;;;2.78;;
52530;SDS011;38441;52.894;6.040;2022-09-21T20:41:11;4.65;;;2.45;;
52530;SDS011;38441;52.894;6.040;2022-09-21T20:43:38;5.28;;;2.63;;
52530;SDS011;38441;52.894;6.040;2022-09-21T20:46:04;5.45;;;2.63;;
52530;SDS011;38441;52.894;6.040;2022-09-21T20:48:30;5.13;;;2.85;;
52530;SDS011;38441;52.894;6.040;2022-09-21T20:50:56;6.15;;;2.78;;
52530;SDS011;38441;52.894;6.040;2022-09-21T20:53:23;8.50;;;3.85;;
52530;SDS011;38441;52.894;6.040;2022-09-21T20:55:53;7.03;;;3.53;;
52530;SDS011;38441;52.894;6.040;2022-09-21T20:58:21;7.25;;;3.97;;
52530;SDS011;38441;52.894;6.040;2022-09-21T21:00:48;7.28;;;3.70;;
52530;SDS011;38441;52.894;6.040;2022-09-21T21:03:15;6.35;;;3.55;;
52530;SDS011;38441;52.894;6.040;2022-09-21T21:05:41;8.68;;;3.60;;
52530;SDS011;38441;52.894;6.040;2022-09-21T21:08:07;7.18;;;3.80;;
52530;SDS011;38441;52.894;6.040;2022-09-21T21:10:33;6.60;;;3.45;;
52530;SDS011;38441;52.894;6.040;2022-09-21T21:12:59;5.93;;;3.38;;
52530;SDS011;38441;52.894;6.040;2022-09-21T21:15:28;8.00;;;3.90;;
52530;SDS011;38441;52.894;6.040;2022-09-21T21:17:54;10.35;;;4.25;;
52530;SDS011;38441;52.894;6.040;2022-09-21T21:20:20;6.05;;;3.65;;
52530;SDS011;38441;52.894;6.040;2022-09-21T21:22:50;6.35;;;3.00;;
52530;SDS011;38441;52.894;6.040;2022-09-21T21:25:16;7.32;;;3.78;;
52530;SDS011;38441;52.894;6.040;2022-09-21T21:27:42;7.68;;;3.90;;
52530;SDS011;38441;52.894;6.040;2022-09-21T21:30:08;5.50;;;2.95;;
52530;SDS011;38441;52.894;6.040;2022-09-21T21:32:35;5.93;;;2.70;;
52530;SDS011;38441;52.894;6.040;2022-09-21T21:35:01;7.05;;;3.30;;
52530;SDS011;38441;52.894;6.040;2022-09-21T21:37:28;5.00;;;2.90;;
52530;SDS011;38441;52.894;6.040;2022-09-21T21:39:58;6.53;;;3.25;;
52530;SDS011;38441;52.894;6.040;2022-09-21T21:42:24;5.07;;;3.13;;
52530;SDS011;38441;52.894;6.040;2022-09-21T21:44:50;8.63;;;3.50;;
52530;SDS011;38441;52.894;6.040;2022-09-21T21:47:16;5.78;;;3.42;;